createdAt,value
2019-03-30T00:01:03.807Z,99.90
2019-03-30T00:03:34.641Z,99.90
2019-03-30T00:06:05.538Z,99.90
2019-03-30T00:08:36.101Z,99.90
2019-03-30T00:11:06.681Z,99.90
2019-03-30T00:13:37.125Z,99.90
2019-03-30T00:16:07.900Z,99.90
2019-03-30T00:18:41.198Z,99.90
2019-03-30T00:21:10.578Z,99.90
2019-03-30T00:23:41.103Z,99.90
2019-03-30T00:26:11.632Z,99.90
2019-03-30T00:28:42.045Z,99.90
2019-03-30T00:31:12.949Z,99.90
2019-03-30T00:33:43.375Z,99.90
2019-03-30T00:36:13.877Z,99.90
2019-03-30T00:38:44.408Z,99.90
2019-03-30T00:41:15.227Z,99.90
2019-03-30T00:43:45.809Z,99.90
2019-03-30T00:46:16.310Z,99.90
2019-03-30T00:48:46.991Z,99.90
2019-03-30T00:51:17.577Z,99.90
2019-03-30T00:53:48.861Z,99.90
2019-03-30T00:56:19.477Z,99.90
2019-03-30T00:58:50.387Z,99.90
2019-03-30T01:01:21.477Z,99.90
2019-03-30T01:03:52.637Z,99.90
2019-03-30T01:06:23.149Z,99.90
2019-03-30T01:08:54.335Z,99.90
2019-03-30T01:11:24.834Z,99.90
2019-03-30T01:13:55.299Z,99.90
2019-03-30T01:16:26.034Z,99.90
2019-03-30T01:18:56.638Z,99.90
2019-03-30T01:21:27.359Z,99.90
2019-03-30T01:23:57.854Z,99.90
2019-03-30T01:26:28.638Z,99.90
2019-03-30T01:28:59.281Z,99.90
2019-03-30T01:31:29.867Z,99.90
2019-03-30T01:34:00.348Z,99.90
2019-03-30T01:36:31.090Z,99.90
2019-03-30T01:39:01.448Z,99.90
2019-03-30T01:41:31.947Z,99.90
2019-03-30T01:44:02.819Z,99.90
2019-03-30T01:46:33.411Z,99.90
2019-03-30T01:49:03.937Z,99.90
2019-03-30T01:51:34.777Z,99.90
2019-03-30T01:54:05.336Z,99.90
2019-03-30T01:56:35.819Z,99.90
2019-03-30T01:59:06.273Z,99.90
2019-03-30T02:01:37.216Z,99.90
2019-03-30T02:04:07.692Z,99.90
2019-03-30T02:06:38.168Z,99.90
2019-03-30T02:09:08.809Z,99.90
2019-03-30T02:11:39.337Z,99.90
2019-03-30T02:14:09.971Z,99.90
2019-03-30T02:16:41.493Z,99.90
2019-03-30T02:19:12.246Z,99.90
2019-03-30T02:21:42.900Z,99.90
2019-03-30T02:24:13.257Z,99.90
2019-03-30T02:26:43.855Z,99.90
2019-03-30T02:29:14.265Z,99.90
2019-03-30T02:31:44.780Z,99.90
2019-03-30T02:34:15.191Z,99.90
2019-03-30T02:36:46.128Z,99.90
2019-03-30T02:39:16.570Z,99.90
2019-03-30T02:41:46.993Z,99.90
2019-03-30T02:44:17.368Z,99.90
2019-03-30T02:46:47.914Z,99.90
2019-03-30T02:49:18.362Z,99.90
2019-03-30T02:51:49.184Z,99.90
2019-03-30T02:54:19.616Z,99.90
2019-03-30T02:56:50.230Z,99.90
2019-03-30T02:59:20.816Z,99.90
2019-03-30T03:01:51.645Z,99.90
2019-03-30T03:04:22.099Z,99.90
2019-03-30T03:06:52.621Z,99.90
2019-03-30T03:09:23.166Z,99.90
2019-03-30T03:11:53.574Z,99.90
2019-03-30T03:14:24.081Z,99.90
2019-03-30T03:16:54.879Z,99.90
2019-03-30T03:19:25.797Z,99.90
2019-03-30T03:21:56.347Z,99.90
2019-03-30T03:24:26.933Z,99.90
2019-03-30T03:26:57.464Z,99.90
2019-03-30T03:29:27.987Z,99.90
2019-03-30T03:31:58.526Z,99.90
2019-03-30T03:34:30.214Z,99.90
2019-03-30T03:37:00.798Z,99.90
2019-03-30T03:39:31.402Z,99.90
2019-03-30T03:42:02.493Z,99.90
2019-03-30T03:44:33.062Z,99.90
2019-03-30T03:47:03.879Z,99.90
2019-03-30T03:49:34.941Z,99.90
2019-03-30T03:52:08.167Z,99.90
2019-03-30T03:54:38.784Z,99.90
2019-03-30T03:57:12.359Z,99.90
2019-03-30T03:59:43.163Z,99.90
2019-03-30T04:02:16.844Z,99.90
2019-03-30T04:04:48.626Z,99.90
2019-03-30T04:07:21.429Z,99.90
2019-03-30T04:09:54.803Z,99.90
2019-03-30T04:12:25.708Z,99.90
2019-03-30T04:14:58.022Z,99.90
2019-03-30T04:17:28.563Z,99.90
2019-03-30T04:19:59.416Z,99.90
2019-03-30T04:22:30.111Z,99.90
2019-03-30T04:25:01.006Z,99.90
2019-03-30T04:27:31.655Z,99.90
2019-03-30T04:30:04.167Z,99.90
2019-03-30T04:32:34.774Z,99.90
2019-03-30T04:35:05.546Z,99.90
2019-03-30T04:37:35.941Z,99.90
2019-03-30T04:40:07.046Z,99.90
2019-03-30T04:42:38.738Z,99.90
2019-03-30T04:45:09.784Z,99.90
2019-03-30T04:47:40.233Z,99.90
2019-03-30T04:50:11.482Z,99.90
2019-03-30T04:52:41.933Z,99.90
2019-03-30T04:55:12.419Z,99.90
2019-03-30T04:57:42.844Z,99.90
2019-03-30T05:00:15.742Z,99.90
2019-03-30T05:02:47.216Z,99.90
2019-03-30T05:05:17.643Z,99.90
2019-03-30T05:07:48.551Z,99.90
2019-03-30T05:10:19.346Z,99.90
2019-03-30T05:12:50.436Z,99.90
2019-03-30T05:15:20.923Z,99.90
2019-03-30T05:17:51.558Z,99.90
2019-03-30T05:20:23.404Z,99.90
2019-03-30T05:22:53.998Z,99.90
2019-03-30T05:25:25.741Z,99.90
2019-03-30T05:27:56.665Z,99.90
2019-03-30T05:30:27.131Z,99.90
2019-03-30T05:33:05.614Z,99.90
2019-03-30T05:35:29.784Z,99.90
2019-03-30T05:38:01.594Z,99.90
2019-03-30T05:40:32.775Z,99.90
2019-03-30T05:43:03.316Z,99.90
2019-03-30T05:45:34.020Z,99.90
2019-03-30T05:48:04.712Z,99.90
2019-03-30T05:50:36.574Z,99.90
2019-03-30T05:53:07.716Z,99.90
2019-03-30T05:55:38.563Z,99.90
2019-03-30T05:58:09.121Z,99.90
2019-03-30T06:00:39.891Z,99.90
2019-03-30T06:03:10.948Z,99.90
2019-03-30T06:05:41.346Z,99.90
2019-03-30T06:08:12.222Z,99.90
2019-03-30T06:10:42.680Z,99.90
2019-03-30T06:13:14.378Z,99.90
2019-03-30T06:15:45.035Z,99.90
2019-03-30T06:18:15.603Z,92.40
2019-03-30T06:20:46.145Z,86.50
2019-03-30T06:23:16.689Z,80.00
2019-03-30T06:25:47.131Z,76.40
2019-03-30T06:28:17.616Z,72.80
2019-03-30T06:30:48.111Z,66.70
2019-03-30T06:33:18.910Z,63.10
2019-03-30T06:35:49.551Z,59.20
2019-03-30T06:38:20.387Z,56.50
2019-03-30T06:40:51.181Z,55.10
2019-03-30T06:43:21.910Z,55.50
2019-03-30T06:45:52.593Z,52.20
2019-03-30T06:48:23.101Z,51.50
2019-03-30T06:50:53.492Z,49.30
2019-03-30T06:53:24.481Z,48.60
2019-03-30T06:55:58.136Z,48.30
2019-03-30T06:58:30.723Z,46.30
2019-03-30T07:01:01.369Z,45.30
2019-03-30T07:03:31.836Z,44.60
2019-03-30T07:06:03.231Z,42.70
2019-03-30T07:08:35.256Z,42.00
2019-03-30T07:11:20.180Z,42.50
2019-03-30T07:13:40.342Z,40.30
2019-03-30T07:16:12.203Z,42.10
2019-03-30T07:18:44.754Z,42.10
2019-03-30T07:21:15.837Z,39.60
2019-03-30T07:23:47.004Z,39.10
2019-03-30T07:26:17.373Z,39.10
2019-03-30T07:28:47.818Z,39.20
2019-03-30T07:31:18.892Z,36.80
2019-03-30T07:33:49.332Z,37.10
2019-03-30T07:36:19.938Z,36.50
2019-03-30T07:38:50.319Z,35.90
2019-03-30T07:41:20.744Z,37.20
2019-03-30T07:43:52.111Z,35.00
2019-03-30T07:46:22.825Z,35.80
2019-03-30T07:48:53.450Z,36.00
2019-03-30T07:51:24.080Z,36.60
2019-03-30T07:53:54.710Z,35.60
2019-03-30T07:56:25.165Z,33.80
2019-03-30T07:58:57.438Z,33.10
2019-03-30T08:01:27.908Z,33.70
2019-03-30T08:03:58.780Z,34.80
2019-03-30T08:06:29.314Z,34.80
2019-03-30T08:09:00.240Z,32.90
2019-03-30T08:11:30.797Z,33.00
2019-03-30T08:14:01.405Z,32.60
2019-03-30T08:16:32.745Z,33.10
2019-03-30T08:19:03.189Z,32.60
2019-03-30T08:21:33.731Z,32.70
2019-03-30T08:24:04.262Z,34.30
2019-03-30T08:26:35.764Z,32.10
2019-03-30T08:29:06.645Z,32.00
2019-03-30T08:31:38.030Z,32.40
2019-03-30T08:34:08.506Z,32.30
2019-03-30T08:36:39.047Z,32.90
2019-03-30T08:39:09.447Z,32.10
2019-03-30T08:41:40.016Z,31.70
2019-03-30T08:44:10.417Z,31.40
2019-03-30T08:46:40.872Z,31.10
2019-03-30T08:49:11.423Z,30.60
2019-03-30T08:51:42.248Z,29.90
2019-03-30T08:54:12.701Z,30.40
2019-03-30T08:56:43.914Z,29.60
2019-03-30T08:59:14.679Z,29.60
2019-03-30T09:01:45.225Z,29.50
2019-03-30T09:04:15.841Z,28.40
2019-03-30T09:06:46.865Z,28.70
2019-03-30T09:09:17.519Z,28.30
2019-03-30T09:11:48.058Z,29.40
2019-03-30T09:14:18.795Z,29.60
2019-03-30T09:16:49.297Z,29.90
2019-03-30T09:19:20.440Z,30.40
2019-03-30T09:21:50.849Z,29.50
2019-03-30T09:24:21.308Z,29.60
2019-03-30T09:26:51.772Z,29.30
2019-03-30T09:29:22.642Z,28.60
2019-03-30T09:31:53.534Z,29.50
2019-03-30T09:34:24.748Z,29.80
2019-03-30T09:36:55.297Z,29.00
2019-03-30T09:39:26.312Z,28.40
2019-03-30T09:41:56.894Z,27.90
2019-03-30T09:44:27.288Z,28.30
2019-03-30T09:46:57.731Z,27.90
2019-03-30T09:49:28.310Z,27.30
2019-03-30T09:51:59.009Z,27.70
2019-03-30T09:54:29.836Z,27.70
2019-03-30T09:57:00.865Z,27.90
2019-03-30T09:59:31.421Z,27.20
2019-03-30T10:02:02.016Z,26.30
2019-03-30T10:04:33.111Z,27.40
2019-03-30T10:07:05.248Z,28.60
2019-03-30T10:09:35.906Z,28.40
2019-03-30T10:12:07.913Z,27.90
2019-03-30T10:14:38.433Z,28.40
2019-03-30T10:17:09.311Z,29.20
2019-03-30T10:19:40.000Z,28.80
2019-03-30T10:22:10.488Z,28.90
2019-03-30T10:24:41.125Z,30.10
2019-03-30T10:27:11.580Z,30.00
2019-03-30T10:29:42.483Z,29.00
2019-03-30T10:32:13.068Z,29.20
2019-03-30T10:34:43.648Z,29.70
2019-03-30T10:37:14.747Z,29.90
2019-03-30T10:39:45.927Z,30.30
2019-03-30T10:42:16.418Z,29.80
2019-03-30T10:44:47.040Z,30.50
2019-03-30T10:47:18.052Z,30.40
2019-03-30T10:49:48.620Z,31.30
2019-03-30T10:52:19.103Z,30.00
2019-03-30T10:54:52.789Z,29.70
2019-03-30T10:57:22.639Z,29.60
2019-03-30T10:59:53.221Z,31.60
2019-03-30T11:02:24.041Z,32.50
2019-03-30T11:04:54.608Z,33.50
2019-03-30T11:07:25.229Z,35.00
2019-03-30T11:09:55.708Z,34.40
2019-03-30T11:12:26.241Z,32.80
2019-03-30T11:14:57.187Z,32.70
2019-03-30T11:17:27.962Z,33.20
2019-03-30T11:19:58.862Z,33.10
2019-03-30T11:22:29.443Z,33.80
2019-03-30T11:25:07.247Z,34.00
2019-03-30T11:27:32.998Z,33.30
2019-03-30T11:30:04.106Z,32.80
2019-03-30T11:32:34.645Z,33.20
2019-03-30T11:35:05.932Z,32.30
2019-03-30T11:37:36.511Z,32.60
2019-03-30T11:40:08.427Z,33.70
2019-03-30T11:42:39.303Z,33.00
2019-03-30T11:45:10.238Z,32.90
2019-03-30T11:47:40.877Z,33.20
2019-03-30T11:50:12.253Z,33.50
2019-03-30T11:52:43.080Z,33.40
2019-03-30T11:55:21.629Z,32.90
2019-03-30T11:57:46.548Z,33.00
2019-03-30T12:00:17.804Z,31.60
2019-03-30T12:02:48.370Z,31.90
2019-03-30T12:05:18.984Z,33.40
2019-03-30T12:07:49.463Z,33.30
2019-03-30T12:10:21.020Z,32.40
2019-03-30T12:12:51.705Z,33.40
2019-03-30T12:15:22.752Z,34.20
2019-03-30T12:17:55.265Z,35.10
2019-03-30T12:20:26.259Z,36.10
2019-03-30T12:22:57.092Z,36.80
2019-03-30T12:25:35.413Z,37.30
2019-03-30T12:27:59.877Z,39.20
2019-03-30T12:30:30.468Z,40.50
2019-03-30T12:33:01.077Z,40.70
2019-03-30T12:35:33.178Z,40.70
2019-03-30T12:38:03.647Z,41.50
2019-03-30T12:40:34.321Z,41.20
2019-03-30T12:43:04.920Z,38.70
2019-03-30T12:45:35.411Z,38.70
2019-03-30T12:48:07.085Z,38.30
2019-03-30T12:50:37.758Z,37.00
2019-03-30T12:53:08.541Z,36.30
2019-03-30T12:55:49.291Z,36.10
2019-03-30T12:58:11.517Z,36.80
2019-03-30T13:00:42.268Z,37.10
2019-03-30T13:03:13.135Z,37.50
2019-03-30T13:05:43.947Z,39.10
2019-03-30T13:08:14.713Z,39.40
2019-03-30T13:10:45.528Z,39.60
2019-03-30T13:13:16.518Z,40.80
2019-03-30T13:15:46.882Z,40.90
2019-03-30T13:18:17.416Z,39.50
2019-03-30T13:20:48.140Z,39.10
2019-03-30T13:23:18.660Z,40.00
2019-03-30T13:26:02.537Z,41.20
2019-03-30T13:28:21.306Z,40.70
2019-03-30T13:30:51.743Z,41.00
2019-03-30T13:33:22.137Z,41.50
2019-03-30T13:35:53.117Z,42.30
2019-03-30T13:38:25.891Z,43.00
2019-03-30T13:40:56.194Z,42.90
2019-03-30T13:43:26.892Z,43.50
2019-03-30T13:45:57.306Z,41.70
2019-03-30T13:48:28.046Z,40.80
2019-03-30T13:50:58.724Z,39.50
2019-03-30T13:53:29.274Z,39.90
2019-03-30T13:56:00.451Z,40.10
2019-03-30T13:58:30.992Z,38.90
2019-03-30T14:01:01.627Z,38.80
2019-03-30T14:03:32.117Z,39.60
2019-03-30T14:06:02.745Z,38.00
2019-03-30T14:08:33.212Z,38.40
2019-03-30T14:11:03.949Z,38.90
2019-03-30T14:13:34.416Z,38.50
2019-03-30T14:16:05.030Z,37.50
2019-03-30T14:18:35.622Z,37.20
2019-03-30T14:21:06.151Z,36.70
2019-03-30T14:23:37.348Z,35.10
2019-03-30T14:26:07.819Z,36.30
2019-03-30T14:28:38.351Z,36.30
2019-03-30T14:31:08.757Z,36.90
2019-03-30T14:33:39.263Z,37.90
2019-03-30T14:36:09.766Z,38.60
2019-03-30T14:38:40.158Z,39.00
2019-03-30T14:41:10.646Z,38.70
2019-03-30T14:43:41.076Z,37.50
2019-03-30T14:46:12.221Z,37.50
2019-03-30T14:48:42.657Z,37.90
2019-03-30T14:51:13.270Z,37.20
2019-03-30T14:53:45.164Z,36.20
2019-03-30T14:56:15.664Z,35.90
2019-03-30T14:58:46.489Z,36.60
2019-03-30T15:01:17.181Z,37.50
2019-03-30T15:03:47.707Z,38.20
2019-03-30T15:06:18.644Z,38.60
2019-03-30T15:08:49.250Z,38.80
2019-03-30T15:11:19.654Z,37.50
2019-03-30T15:13:50.393Z,37.90
2019-03-30T15:16:20.867Z,38.70
2019-03-30T15:18:51.381Z,38.40
2019-03-30T15:21:22.538Z,38.10
2019-03-30T15:23:53.251Z,38.00
2019-03-30T15:26:23.773Z,38.00
2019-03-30T15:28:54.242Z,37.60
2019-03-30T15:31:24.642Z,37.60
2019-03-30T15:33:55.024Z,38.00
2019-03-30T15:36:26.326Z,38.30
2019-03-30T15:38:56.789Z,38.50
2019-03-30T15:41:27.270Z,38.20
2019-03-30T15:43:57.905Z,37.70
2019-03-30T15:46:28.404Z,38.70
2019-03-30T15:48:58.801Z,38.20
2019-03-30T15:51:29.336Z,38.00
2019-03-30T15:53:59.929Z,38.40
2019-03-30T15:56:30.465Z,37.80
2019-03-30T15:59:00.935Z,38.00
2019-03-30T16:01:31.439Z,38.00
2019-03-30T16:04:02.663Z,39.20
2019-03-30T16:06:33.542Z,38.40
2019-03-30T16:09:06.158Z,38.30
2019-03-30T16:11:39.239Z,38.40
2019-03-30T16:14:09.741Z,38.60
2019-03-30T16:16:41.561Z,39.10
2019-03-30T16:19:12.405Z,39.30
2019-03-30T16:21:43.157Z,39.60
2019-03-30T16:24:13.795Z,40.00
2019-03-30T16:26:44.421Z,40.40
2019-03-30T16:29:15.141Z,40.80
2019-03-30T16:31:45.981Z,41.40
2019-03-30T16:34:16.632Z,41.80
2019-03-30T16:36:48.330Z,41.50
2019-03-30T16:39:19.034Z,41.70
2019-03-30T16:41:51.679Z,42.30
2019-03-30T16:44:22.575Z,41.90
2019-03-30T16:46:52.988Z,42.30
2019-03-30T16:49:23.702Z,42.10
2019-03-30T16:51:54.299Z,42.70
2019-03-30T16:54:26.466Z,43.20
2019-03-30T16:56:56.971Z,43.50
2019-03-30T16:59:27.481Z,43.90
2019-03-30T17:01:58.151Z,44.10
2019-03-30T17:04:29.672Z,44.60
2019-03-30T17:07:00.916Z,45.10
2019-03-30T17:09:31.532Z,45.20
2019-03-30T17:12:02.075Z,45.20
2019-03-30T17:14:32.944Z,46.00
2019-03-30T17:17:03.614Z,45.80
2019-03-30T17:19:34.313Z,46.10
2019-03-30T17:22:05.075Z,46.50
2019-03-30T17:24:35.951Z,46.80
2019-03-30T17:27:06.443Z,47.20
2019-03-30T17:29:36.877Z,47.50
2019-03-30T17:32:07.287Z,47.70
2019-03-30T17:34:38.287Z,48.00
2019-03-30T17:37:09.412Z,48.10
2019-03-30T17:39:40.248Z,48.50
2019-03-30T17:42:10.782Z,48.90
2019-03-30T17:44:41.200Z,49.30
2019-03-30T17:47:11.801Z,49.50
2019-03-30T17:49:42.467Z,49.80
2019-03-30T17:52:13.900Z,50.20
2019-03-30T17:54:44.543Z,50.40
2019-03-30T17:57:17.524Z,50.80
2019-03-30T17:59:47.353Z,51.00
2019-03-30T18:02:17.865Z,51.40
2019-03-30T18:04:48.315Z,51.70
2019-03-30T18:07:19.530Z,52.50
2019-03-30T18:09:50.854Z,52.80
2019-03-30T18:12:21.864Z,53.20
2019-03-30T18:14:52.461Z,53.50
2019-03-30T18:17:23.029Z,53.90
2019-03-30T18:19:54.734Z,54.60
2019-03-30T18:22:25.217Z,55.00
2019-03-30T18:24:55.619Z,55.20
2019-03-30T18:27:26.826Z,55.60
2019-03-30T18:29:57.373Z,55.90
2019-03-30T18:32:28.005Z,56.70
2019-03-30T18:35:00.819Z,56.80
2019-03-30T18:37:33.280Z,57.10
2019-03-30T18:40:04.919Z,58.40
2019-03-30T18:42:36.787Z,58.10
2019-03-30T18:45:08.278Z,58.50
2019-03-30T18:47:38.688Z,58.60
2019-03-30T18:50:09.829Z,58.80
2019-03-30T18:52:40.631Z,58.90
2019-03-30T18:55:14.244Z,58.90
2019-03-30T18:57:44.741Z,59.90
2019-03-30T19:00:18.661Z,60.30
2019-03-30T19:02:49.516Z,61.30
2019-03-30T19:05:20.032Z,61.80
2019-03-30T19:07:50.658Z,61.90
2019-03-30T19:10:22.434Z,61.90
2019-03-30T19:12:53.321Z,61.80
2019-03-30T19:15:23.895Z,61.90
2019-03-30T19:17:54.528Z,62.40
2019-03-30T19:20:25.558Z,63.50
2019-03-30T19:22:58.492Z,64.40
2019-03-30T19:25:30.006Z,64.60
2019-03-30T19:28:00.864Z,64.90
2019-03-30T19:30:32.480Z,66.20
2019-03-30T19:33:02.924Z,66.70
2019-03-30T19:35:33.549Z,67.10
2019-03-30T19:38:04.154Z,67.30
2019-03-30T19:40:34.608Z,68.00
2019-03-30T19:43:05.250Z,69.00
2019-03-30T19:45:35.773Z,69.50
2019-03-30T19:48:06.610Z,69.20
2019-03-30T19:50:38.291Z,69.60
2019-03-30T19:53:08.940Z,69.60
2019-03-30T19:55:39.475Z,70.50
2019-03-30T19:58:10.253Z,70.90
2019-03-30T20:00:41.242Z,71.00
2019-03-30T20:03:11.985Z,71.30
2019-03-30T20:05:44.690Z,71.30
2019-03-30T20:08:15.933Z,72.00
2019-03-30T20:10:46.330Z,72.40
2019-03-30T20:13:16.872Z,72.40
2019-03-30T20:15:48.076Z,73.00
2019-03-30T20:18:18.648Z,72.60
2019-03-30T20:20:49.706Z,72.20
2019-03-30T20:23:20.218Z,72.30
2019-03-30T20:25:50.747Z,73.10
2019-03-30T20:28:21.228Z,73.40
2019-03-30T20:30:51.729Z,73.90
2019-03-30T20:33:22.888Z,75.20
2019-03-30T20:35:53.573Z,76.50
2019-03-30T20:38:23.976Z,77.80
2019-03-30T20:40:54.504Z,79.20
2019-03-30T20:43:25.354Z,80.30
2019-03-30T20:45:55.885Z,81.80
2019-03-30T20:48:27.107Z,83.40
2019-03-30T20:50:57.660Z,84.90
2019-03-30T20:53:28.092Z,86.70
2019-03-30T20:56:01.811Z,89.40
2019-03-30T20:58:32.290Z,91.00
2019-03-30T21:01:03.074Z,92.10
2019-03-30T21:03:33.553Z,93.10
2019-03-30T21:06:05.285Z,94.00
2019-03-30T21:08:36.171Z,95.40
2019-03-30T21:11:07.129Z,97.10
2019-03-30T21:13:38.085Z,98.40
2019-03-30T21:16:08.599Z,99.90
2019-03-30T21:18:40.760Z,99.90
2019-03-30T21:21:11.267Z,99.90
2019-03-30T21:23:41.686Z,99.90
2019-03-30T21:26:12.224Z,99.90
2019-03-30T21:28:43.062Z,99.90
2019-03-30T21:31:14.064Z,99.90
2019-03-30T21:33:44.569Z,99.90
2019-03-30T21:36:15.200Z,99.90
2019-03-30T21:38:45.635Z,99.90
2019-03-30T21:41:16.985Z,99.90
2019-03-30T21:43:47.695Z,99.90
2019-03-30T21:46:18.126Z,99.90
2019-03-30T21:48:48.750Z,99.90
2019-03-30T21:51:19.348Z,99.90
2019-03-30T21:53:49.838Z,99.90
2019-03-30T21:56:20.269Z,99.90
2019-03-30T21:58:50.715Z,99.90
2019-03-30T22:01:21.209Z,99.90
2019-03-30T22:03:51.634Z,99.90
2019-03-30T22:06:22.544Z,99.90
2019-03-30T22:08:53.882Z,99.90
2019-03-30T22:11:24.366Z,99.90
2019-03-30T22:13:54.946Z,99.90
2019-03-30T22:16:25.487Z,99.90
2019-03-30T22:18:56.170Z,99.90
2019-03-30T22:21:26.591Z,99.90
2019-03-30T22:23:57.205Z,99.90
2019-03-30T22:26:27.774Z,99.90
2019-03-30T22:28:58.539Z,99.90
2019-03-30T22:31:28.883Z,99.90
2019-03-30T22:33:59.311Z,99.90
2019-03-30T22:36:31.489Z,99.90
2019-03-30T22:39:01.915Z,99.90
2019-03-30T22:41:32.753Z,99.90
2019-03-30T22:44:03.995Z,99.90
2019-03-30T22:46:34.670Z,99.90
2019-03-30T22:49:07.321Z,99.90
2019-03-30T22:51:38.484Z,99.90
2019-03-30T22:54:09.148Z,99.90
2019-03-30T22:56:39.623Z,99.90
2019-03-30T22:59:10.041Z,99.90
2019-03-30T23:01:40.689Z,99.90
2019-03-30T23:04:12.189Z,99.90
2019-03-30T23:06:43.071Z,99.90
2019-03-30T23:09:13.762Z,99.90
2019-03-30T23:11:44.305Z,99.90
2019-03-30T23:14:14.977Z,99.90
2019-03-30T23:16:45.607Z,99.90
2019-03-30T23:19:16.927Z,99.90
2019-03-30T23:21:47.629Z,99.90
2019-03-30T23:24:18.412Z,99.90
2019-03-30T23:26:49.248Z,99.90
2019-03-30T23:29:19.780Z,99.90
2019-03-30T23:31:50.237Z,99.90
2019-03-30T23:34:20.760Z,99.90
2019-03-30T23:36:51.249Z,99.90
2019-03-30T23:39:21.683Z,99.90
2019-03-30T23:41:52.385Z,99.90
2019-03-30T23:44:22.865Z,99.90
2019-03-30T23:46:53.311Z,99.90
2019-03-30T23:49:23.758Z,99.90
2019-03-30T23:51:54.307Z,99.90
2019-03-30T23:54:25.289Z,99.90
2019-03-30T23:56:55.773Z,99.90
2019-03-30T23:59:26.514Z,99.90
